createdAt,value
2023-04-06T00:00:15.670Z,12.30
2023-04-06T00:02:42.427Z,12.35
2023-04-06T00:05:09.314Z,13.68
2023-04-06T00:07:36.124Z,12.27
2023-04-06T00:10:03.996Z,12.00
2023-04-06T00:12:31.096Z,12.20
2023-04-06T00:14:57.782Z,13.32
2023-04-06T00:17:24.592Z,11.98
2023-04-06T00:19:51.374Z,11.88
2023-04-06T00:22:18.061Z,13.40
2023-04-06T00:24:44.695Z,10.38
2023-04-06T00:27:11.430Z,12.52
2023-04-06T00:29:38.089Z,11.73
2023-04-06T00:32:04.919Z,12.10
2023-04-06T00:34:31.648Z,12.52
2023-04-06T00:36:58.426Z,11.85
2023-04-06T00:39:25.168Z,12.85
2023-04-06T00:41:53.660Z,13.82
2023-04-06T00:44:21.125Z,12.23
2023-04-06T00:46:47.964Z,12.18
2023-04-06T00:49:14.985Z,10.73
2023-04-06T00:51:41.607Z,11.63
2023-04-06T00:54:08.390Z,13.18
2023-04-06T00:56:35.455Z,11.32
2023-04-06T00:59:02.304Z,11.15
2023-04-06T01:01:30.114Z,12.57
2023-04-06T01:03:57.162Z,11.05
2023-04-06T01:06:23.812Z,10.68
2023-04-06T01:08:50.574Z,12.13
2023-04-06T01:11:18.658Z,11.70
2023-04-06T01:13:45.444Z,12.70
2023-04-06T01:16:12.263Z,11.70
2023-04-06T01:18:39.143Z,11.32
2023-04-06T01:21:06.116Z,11.65
2023-04-06T01:23:32.896Z,11.00
2023-04-06T01:25:59.563Z,11.52
2023-04-06T01:28:26.477Z,10.85
2023-04-06T01:30:53.123Z,10.38
2023-04-06T01:33:19.851Z,10.20
2023-04-06T01:35:46.639Z,9.98
2023-04-06T01:38:13.389Z,10.45
2023-04-06T01:40:40.107Z,9.40
2023-04-06T01:43:07.616Z,9.90
2023-04-06T01:45:34.376Z,9.50
2023-04-06T01:48:01.372Z,9.95
2023-04-06T01:50:28.083Z,9.70
2023-04-06T01:52:54.732Z,10.65
2023-04-06T01:55:21.496Z,9.45
2023-04-06T01:57:48.122Z,9.45
2023-04-06T02:00:15.527Z,9.18
2023-04-06T02:02:42.359Z,8.07
2023-04-06T02:05:09.885Z,10.18
2023-04-06T02:07:36.497Z,11.75
2023-04-06T02:10:03.633Z,11.98
2023-04-06T02:12:30.500Z,9.25
2023-04-06T02:14:57.193Z,12.65
2023-04-06T02:17:23.898Z,10.07
2023-04-06T02:19:51.125Z,11.23
2023-04-06T02:22:17.894Z,12.77
2023-04-06T02:24:44.648Z,11.25
2023-04-06T02:27:11.391Z,12.85
2023-04-06T02:29:38.084Z,13.05
2023-04-06T02:32:05.209Z,12.35
2023-04-06T02:34:31.988Z,12.23
2023-04-06T02:36:58.753Z,11.95
2023-04-06T02:39:25.430Z,12.55
2023-04-06T02:41:52.050Z,12.20
2023-04-06T02:44:18.738Z,11.02
2023-04-06T02:46:45.429Z,11.60
2023-04-06T02:49:12.130Z,12.90
2023-04-06T02:51:38.786Z,12.73
2023-04-06T02:54:05.502Z,12.30
2023-04-06T02:56:32.190Z,12.30
2023-04-06T02:58:59.053Z,12.90
2023-04-06T03:01:27.400Z,12.25
2023-04-06T03:03:54.242Z,13.70
2023-04-06T03:06:21.059Z,15.73
2023-04-06T03:08:48.301Z,14.18
2023-04-06T03:11:15.041Z,14.02
2023-04-06T03:13:41.854Z,13.38
2023-04-06T03:16:08.550Z,12.95
2023-04-06T03:18:35.409Z,12.15
2023-04-06T03:21:02.085Z,12.80
2023-04-06T03:23:28.828Z,18.33
2023-04-06T03:25:55.480Z,13.93
2023-04-06T03:28:22.262Z,12.90
2023-04-06T03:30:48.940Z,12.48
2023-04-06T03:33:15.815Z,13.32
2023-04-06T03:35:42.592Z,13.30
2023-04-06T03:38:09.297Z,13.75
2023-04-06T03:40:36.065Z,12.25
2023-04-06T03:43:02.774Z,13.45
2023-04-06T03:45:29.521Z,12.00
2023-04-06T03:47:56.338Z,13.52
2023-04-06T03:50:23.240Z,14.93
2023-04-06T03:52:49.920Z,16.80
2023-04-06T03:55:16.673Z,15.32
2023-04-06T03:57:43.380Z,15.25
2023-04-06T04:00:11.000Z,14.45
2023-04-06T04:02:37.656Z,13.95
2023-04-06T04:05:04.969Z,13.02
2023-04-06T04:07:31.726Z,13.80
2023-04-06T04:09:58.620Z,13.52
2023-04-06T04:12:25.452Z,11.02
2023-04-06T04:14:52.101Z,12.40
2023-04-06T04:17:18.813Z,14.07
2023-04-06T04:19:45.502Z,12.80
2023-04-06T04:22:12.305Z,13.43
2023-04-06T04:24:38.977Z,12.27
2023-04-06T04:27:06.237Z,14.45
2023-04-06T04:29:32.944Z,16.17
2023-04-06T04:31:59.623Z,16.40
2023-04-06T04:34:26.881Z,16.10
2023-04-06T04:36:53.874Z,14.80
2023-04-06T04:39:20.938Z,14.82
2023-04-06T04:41:47.624Z,15.43
2023-04-06T04:44:14.342Z,16.48
2023-04-06T04:46:42.526Z,14.95
2023-04-06T04:49:09.543Z,15.65
2023-04-06T04:51:37.532Z,14.52
2023-04-06T04:54:04.310Z,15.98
2023-04-06T04:56:31.091Z,15.88
2023-04-06T04:58:57.986Z,14.50
2023-04-06T05:01:24.788Z,16.92
2023-04-06T05:03:51.721Z,16.30
2023-04-06T05:06:20.040Z,14.20
2023-04-06T05:08:46.728Z,16.17
2023-04-06T05:11:13.592Z,16.45
2023-04-06T05:13:40.626Z,14.25
2023-04-06T05:16:07.738Z,14.15
2023-04-06T05:18:34.679Z,14.60
2023-04-06T05:21:01.774Z,13.52
2023-04-06T05:23:28.560Z,14.02
2023-04-06T05:25:55.370Z,14.20
2023-04-06T05:28:22.271Z,15.18
2023-04-06T05:30:48.941Z,12.63
2023-04-06T05:33:15.579Z,12.93
2023-04-06T05:35:42.288Z,15.13
2023-04-06T05:38:11.226Z,14.65
2023-04-06T05:40:39.373Z,14.82
2023-04-06T05:43:06.135Z,15.68
2023-04-06T05:45:32.959Z,13.98
2023-04-06T05:47:59.678Z,13.75
2023-04-06T05:50:26.421Z,13.35
2023-04-06T05:52:53.028Z,13.02
2023-04-06T05:55:19.829Z,13.93
2023-04-06T05:57:46.470Z,16.00
2023-04-06T06:00:14.092Z,15.45
2023-04-06T06:02:43.186Z,15.35
2023-04-06T06:05:11.357Z,14.77
2023-04-06T06:07:38.098Z,15.95
2023-04-06T06:10:04.948Z,17.05
2023-04-06T06:12:31.721Z,16.88
2023-04-06T06:14:58.473Z,17.80
2023-04-06T06:17:25.270Z,15.85
2023-04-06T06:19:52.048Z,14.82
2023-04-06T06:22:18.794Z,15.65
2023-04-06T06:24:45.421Z,14.77
2023-04-06T06:27:12.182Z,14.40
2023-04-06T06:29:39.004Z,14.98
2023-04-06T06:32:06.043Z,15.82
2023-04-06T06:34:33.003Z,14.23
2023-04-06T06:36:59.668Z,15.07
2023-04-06T06:39:26.535Z,15.18
2023-04-06T06:41:53.181Z,14.77
2023-04-06T06:44:19.861Z,15.65
2023-04-06T06:46:46.621Z,15.82
2023-04-06T06:49:13.464Z,15.18
2023-04-06T06:51:40.415Z,15.88
2023-04-06T06:54:07.640Z,15.38
2023-04-06T06:56:36.921Z,16.98
2023-04-06T06:59:03.690Z,15.27
2023-04-06T07:01:30.601Z,15.75
2023-04-06T07:03:57.339Z,16.92
2023-04-06T07:06:24.121Z,21.10
2023-04-06T07:08:51.009Z,16.05
2023-04-06T07:11:17.759Z,27.25
2023-04-06T07:13:44.498Z,15.10
2023-04-06T07:16:11.278Z,14.98
2023-04-06T07:18:37.929Z,14.55
2023-04-06T07:21:05.015Z,14.43
2023-04-06T07:23:31.867Z,14.70
2023-04-06T07:25:58.584Z,14.68
2023-04-06T07:28:25.295Z,13.88
2023-04-06T07:30:52.165Z,15.30
2023-04-06T07:33:18.861Z,13.73
2023-04-06T07:35:46.482Z,14.25
2023-04-06T07:38:13.279Z,12.98
2023-04-06T07:40:40.016Z,13.23
2023-04-06T07:43:06.987Z,12.88
2023-04-06T07:45:33.636Z,12.68
2023-04-06T07:48:00.355Z,12.45
2023-04-06T07:50:27.067Z,11.10
2023-04-06T07:52:53.815Z,12.88
2023-04-06T07:55:20.586Z,10.88
2023-04-06T07:57:47.242Z,10.50
2023-04-06T08:00:14.721Z,11.70
2023-04-06T08:02:41.552Z,9.60
2023-04-06T08:05:08.709Z,10.75
2023-04-06T08:07:36.626Z,10.02
2023-04-06T08:10:03.712Z,10.25
2023-04-06T08:12:30.934Z,8.98
2023-04-06T08:14:57.972Z,9.50
2023-04-06T08:17:24.696Z,10.13
2023-04-06T08:19:51.549Z,10.65
2023-04-06T08:22:18.746Z,9.80
2023-04-06T08:24:45.590Z,10.00
2023-04-06T08:27:12.343Z,9.68
2023-04-06T08:29:39.070Z,8.57
2023-04-06T08:32:06.356Z,9.00
2023-04-06T08:34:34.669Z,9.63
2023-04-06T08:37:01.643Z,8.13
2023-04-06T08:39:29.251Z,8.13
2023-04-06T08:42:01.092Z,8.05
2023-04-06T08:44:28.225Z,7.35
2023-04-06T08:46:55.874Z,8.60
2023-04-06T08:49:23.461Z,7.88
2023-04-06T08:51:51.247Z,8.50
2023-04-06T08:54:17.947Z,8.23
2023-04-06T08:56:44.883Z,7.85
2023-04-06T08:59:12.149Z,7.30
2023-04-06T09:01:44.461Z,7.50
2023-04-06T09:04:13.156Z,6.95
2023-04-06T09:06:41.758Z,7.78
2023-04-06T09:09:09.201Z,7.75
2023-04-06T09:11:47.839Z,7.25
2023-04-06T09:14:14.794Z,7.00
2023-04-06T09:16:46.648Z,6.88
2023-04-06T09:19:13.808Z,6.70
2023-04-06T09:21:43.816Z,7.22
2023-04-06T09:24:11.161Z,7.05
2023-04-06T09:26:48.287Z,6.78
2023-04-06T09:29:27.702Z,6.80
2023-04-06T09:32:03.854Z,7.80
2023-04-06T09:34:30.486Z,6.90
2023-04-06T09:36:57.300Z,6.60
2023-04-06T09:39:26.834Z,7.25
2023-04-06T09:41:55.195Z,6.53
2023-04-06T09:44:22.172Z,7.10
2023-04-06T09:46:58.732Z,6.80
2023-04-06T09:49:28.904Z,6.32
2023-04-06T09:54:27.499Z,6.35
2023-04-06T09:59:54.970Z,6.82
2023-04-06T10:02:36.017Z,7.00
2023-04-06T10:05:38.732Z,6.65
2023-04-06T10:08:09.965Z,6.72
2023-04-06T10:10:37.071Z,7.57
2023-04-06T10:13:05.517Z,6.95
2023-04-06T10:15:33.206Z,7.07
2023-04-06T10:18:01.175Z,7.38
2023-04-06T10:20:40.173Z,7.75
2023-04-06T10:23:16.881Z,7.57
2023-04-06T10:26:00.572Z,7.43
2023-04-06T10:28:32.397Z,8.32
2023-04-06T10:31:00.782Z,8.15
2023-04-06T10:33:28.658Z,8.15
2023-04-06T10:35:56.812Z,7.25
2023-04-06T10:38:37.665Z,7.80
2023-04-06T10:41:07.933Z,7.95
2023-04-06T10:43:36.812Z,7.75
2023-04-06T10:46:05.500Z,7.38
2023-04-06T10:48:41.421Z,7.80
2023-04-06T10:51:14.709Z,7.35
2023-04-06T10:53:44.721Z,8.43
2023-04-06T10:56:13.448Z,7.13
2023-04-06T10:58:49.083Z,7.97
2023-04-06T11:01:20.192Z,8.00
2023-04-06T11:03:48.921Z,7.80
2023-04-06T11:06:41.806Z,8.18
2023-04-06T11:09:10.035Z,7.78
2023-04-06T11:11:40.118Z,7.30
2023-04-06T11:14:06.758Z,8.35
2023-04-06T11:16:34.434Z,7.65
2023-04-06T11:19:07.070Z,8.05
2023-04-06T11:21:37.763Z,8.52
2023-04-06T11:24:16.653Z,8.05
2023-04-06T11:26:46.854Z,7.68
2023-04-06T11:29:14.675Z,8.40
2023-04-06T11:31:46.812Z,7.97
2023-04-06T11:34:17.257Z,7.38
2023-04-06T11:36:45.844Z,7.20
2023-04-06T11:39:14.739Z,7.97
2023-04-06T11:41:43.966Z,7.85
2023-04-06T11:44:10.924Z,8.75
2023-04-06T11:46:37.696Z,7.22
2023-04-06T11:49:04.575Z,7.95
2023-04-06T11:51:31.281Z,8.27
2023-04-06T11:53:58.018Z,8.10
2023-04-06T11:56:26.358Z,7.85
2023-04-06T11:58:55.700Z,7.40
2023-04-06T12:01:22.687Z,7.65
2023-04-06T12:03:49.850Z,7.22
2023-04-06T12:06:16.738Z,7.57
2023-04-06T12:08:43.511Z,7.75
2023-04-06T12:11:10.158Z,7.80
2023-04-06T12:13:36.832Z,7.00
2023-04-06T12:16:03.722Z,6.97
2023-04-06T12:18:31.403Z,7.50
2023-04-06T12:20:58.145Z,7.28
2023-04-06T12:25:50.114Z,6.97
2023-04-06T12:28:17.051Z,8.20
2023-04-06T12:30:43.747Z,8.30
2023-04-06T12:33:10.504Z,7.82
2023-04-06T12:35:38.260Z,7.22
2023-04-06T12:38:04.906Z,7.88
2023-04-06T12:40:31.599Z,7.38
2023-04-06T12:42:58.271Z,7.15
2023-04-06T12:45:25.018Z,7.22
2023-04-06T12:47:51.941Z,7.22
2023-04-06T12:50:18.914Z,6.55
2023-04-06T12:52:45.825Z,5.93
2023-04-06T12:55:12.640Z,6.40
2023-04-06T12:57:39.398Z,6.75
2023-04-06T13:00:09.088Z,6.85
2023-04-06T13:02:36.319Z,6.03
2023-04-06T13:05:03.195Z,6.28
2023-04-06T13:07:29.912Z,5.78
2023-04-06T13:09:56.628Z,6.70
2023-04-06T13:12:23.326Z,6.88
2023-04-06T13:14:53.485Z,5.60
2023-04-06T13:17:20.189Z,6.95
2023-04-06T13:19:46.867Z,5.93
2023-04-06T13:22:13.484Z,6.10
2023-04-06T13:24:40.352Z,5.90
2023-04-06T13:27:07.023Z,5.95
2023-04-06T13:29:35.295Z,5.93
2023-04-06T13:32:02.067Z,5.38
2023-04-06T13:34:28.824Z,5.70
2023-04-06T13:36:55.548Z,6.18
2023-04-06T13:39:22.273Z,5.18
2023-04-06T13:41:48.968Z,5.47
2023-04-06T13:44:15.735Z,5.10
2023-04-06T13:46:42.336Z,5.50
2023-04-06T13:49:09.028Z,4.90
2023-04-06T13:51:36.417Z,5.38
2023-04-06T13:54:03.018Z,5.32
2023-04-06T13:56:29.660Z,4.70
2023-04-06T13:58:57.215Z,4.78
2023-04-06T14:01:23.873Z,5.25
2023-04-06T14:03:52.027Z,5.07
2023-04-06T14:08:48.360Z,4.40
2023-04-06T14:11:15.775Z,4.75
2023-04-06T14:13:43.041Z,4.60
2023-04-06T14:16:09.989Z,4.38
2023-04-06T14:18:37.892Z,4.70
2023-04-06T14:21:04.853Z,3.35
2023-04-06T14:23:31.463Z,4.35
2023-04-06T14:26:09.403Z,4.05
2023-04-06T14:28:37.488Z,4.03
2023-04-06T14:31:13.006Z,4.03
2023-04-06T14:33:40.487Z,4.07
2023-04-06T14:36:08.009Z,4.18
2023-04-06T14:38:34.803Z,3.38
2023-04-06T14:41:01.740Z,4.32
2023-04-06T14:43:28.637Z,3.92
2023-04-06T14:45:55.331Z,4.18
2023-04-06T14:48:21.970Z,3.70
2023-04-06T14:50:56.082Z,4.32
2023-04-06T14:53:24.767Z,3.55
2023-04-06T14:55:52.471Z,4.28
2023-04-06T14:58:23.479Z,4.18
2023-04-06T15:00:51.229Z,4.20
2023-04-06T15:03:18.023Z,3.97
2023-04-06T15:05:45.420Z,4.07
2023-04-06T15:08:12.702Z,4.30
2023-04-06T15:10:39.409Z,4.20
2023-04-06T15:13:06.239Z,4.38
2023-04-06T15:15:33.085Z,4.20
2023-04-06T15:18:03.341Z,4.63
2023-04-06T15:20:30.774Z,4.90
2023-04-06T15:22:57.716Z,3.83
2023-04-06T15:25:24.494Z,4.68
2023-04-06T15:27:51.357Z,4.60
2023-04-06T15:30:17.987Z,4.68
2023-04-06T15:32:54.857Z,4.22
2023-04-06T15:35:21.881Z,4.30
2023-04-06T15:37:48.849Z,4.75
2023-04-06T15:40:16.765Z,4.13
2023-04-06T15:42:44.052Z,4.65
2023-04-06T15:45:11.739Z,4.38
2023-04-06T15:47:39.419Z,4.35
2023-04-06T15:50:06.589Z,4.80
2023-04-06T15:52:33.238Z,4.60
2023-04-06T15:54:59.879Z,4.22
2023-04-06T15:57:26.513Z,3.90
2023-04-06T15:59:55.302Z,4.18
2023-04-06T16:02:25.996Z,3.88
2023-04-06T16:04:56.590Z,4.10
2023-04-06T16:07:23.481Z,3.88
2023-04-06T16:09:53.180Z,4.47
2023-04-06T16:12:20.478Z,4.65
2023-04-06T16:14:47.270Z,3.72
2023-04-06T16:17:14.279Z,4.07
2023-04-06T16:19:41.780Z,4.05
2023-04-06T16:22:08.725Z,3.85
2023-04-06T16:24:35.476Z,3.58
2023-04-06T16:27:02.181Z,3.97
2023-04-06T16:29:28.856Z,4.40
2023-04-06T16:31:55.625Z,3.78
2023-04-06T16:34:22.321Z,3.80
2023-04-06T16:36:49.014Z,3.60
2023-04-06T16:39:17.195Z,3.65
2023-04-06T16:41:43.810Z,3.55
2023-04-06T16:44:11.366Z,3.63
2023-04-06T16:46:39.149Z,3.67
2023-04-06T16:49:07.031Z,4.13
2023-04-06T16:51:33.742Z,4.75
2023-04-06T16:54:02.040Z,4.20
2023-04-06T16:56:28.795Z,3.65
2023-04-06T16:58:55.560Z,4.40
2023-04-06T17:01:27.934Z,3.78
2023-04-06T17:03:56.064Z,4.10
2023-04-06T17:06:23.228Z,4.20
2023-04-06T17:08:50.834Z,3.58
2023-04-06T17:11:21.688Z,3.72
2023-04-06T17:13:52.286Z,4.20
2023-04-06T17:16:19.580Z,4.43
2023-04-06T17:18:46.262Z,3.95
2023-04-06T17:21:17.013Z,4.53
2023-04-06T17:23:45.086Z,3.55
2023-04-06T17:26:11.918Z,3.92
2023-04-06T17:28:39.017Z,3.47
2023-04-06T17:31:10.598Z,3.70
2023-04-06T17:33:38.870Z,3.78
2023-04-06T17:36:07.809Z,3.78
2023-04-06T17:38:34.614Z,3.88
2023-04-06T17:41:07.538Z,3.70
2023-04-06T17:43:34.159Z,5.15
2023-04-06T17:46:00.828Z,18.40
2023-04-06T17:48:29.288Z,5.18
2023-04-06T17:50:56.172Z,4.97
2023-04-06T17:53:22.877Z,5.05
2023-04-06T17:55:49.527Z,4.68
2023-04-06T17:58:16.179Z,4.93
2023-04-06T18:00:42.841Z,5.15
2023-04-06T18:03:09.462Z,4.40
2023-04-06T18:05:36.258Z,4.30
2023-04-06T18:08:02.840Z,4.15
2023-04-06T18:10:29.418Z,4.72
2023-04-06T18:12:56.359Z,5.63
2023-04-06T18:15:22.984Z,5.18
2023-04-06T18:17:50.552Z,6.00
2023-04-06T18:20:17.360Z,6.55
2023-04-06T18:22:44.175Z,6.50
2023-04-06T18:25:10.825Z,6.95
2023-04-06T18:27:37.474Z,7.38
2023-04-06T18:30:04.902Z,7.03
2023-04-06T18:32:31.716Z,7.07
2023-04-06T18:34:59.060Z,6.90
2023-04-06T18:37:26.251Z,8.80
2023-04-06T18:39:54.473Z,7.53
2023-04-06T18:42:21.343Z,9.38
2023-04-06T18:44:48.252Z,10.90
2023-04-06T18:47:14.947Z,12.82
2023-04-06T18:49:41.665Z,11.27
2023-04-06T18:52:08.328Z,10.95
2023-04-06T18:54:34.994Z,12.23
2023-04-06T18:57:01.865Z,9.77
2023-04-06T18:59:30.465Z,10.50
2023-04-06T19:01:58.709Z,11.20
2023-04-06T19:04:25.667Z,10.18
2023-04-06T19:06:52.501Z,10.85
2023-04-06T19:09:19.156Z,10.93
2023-04-06T19:11:45.876Z,10.38
2023-04-06T19:14:12.490Z,8.95
2023-04-06T19:16:42.693Z,10.95
2023-04-06T19:19:09.812Z,10.15
2023-04-06T19:21:37.385Z,10.80
2023-04-06T19:24:04.273Z,10.13
2023-04-06T19:26:32.702Z,10.20
2023-04-06T19:28:59.407Z,11.07
2023-04-06T19:31:27.978Z,10.32
2023-04-06T19:33:56.442Z,15.40
2023-04-06T19:36:23.235Z,18.40
2023-04-06T19:38:49.883Z,16.92
2023-04-06T19:41:16.644Z,15.60
2023-04-06T19:43:43.260Z,11.40
2023-04-06T19:46:10.882Z,13.30
2023-04-06T19:48:37.575Z,11.35
2023-04-06T19:51:04.305Z,11.73
2023-04-06T19:53:31.034Z,12.70
2023-04-06T19:55:57.754Z,12.45
2023-04-06T19:58:24.439Z,15.25
2023-04-06T20:00:51.134Z,13.85
2023-04-06T20:03:17.970Z,15.10
2023-04-06T20:05:44.864Z,13.57
2023-04-06T20:08:11.476Z,13.30
2023-04-06T20:10:38.426Z,15.80
2023-04-06T20:13:05.207Z,12.77
2023-04-06T20:15:31.935Z,12.77
2023-04-06T20:17:58.606Z,12.85
2023-04-06T20:20:25.567Z,14.93
2023-04-06T20:22:52.277Z,16.45
2023-04-06T20:25:19.972Z,14.57
2023-04-06T20:27:46.718Z,14.73
2023-04-06T20:30:17.122Z,15.60
2023-04-06T20:32:44.006Z,15.35
2023-04-06T20:35:11.111Z,15.90
2023-04-06T20:37:37.989Z,13.93
2023-04-06T20:40:05.376Z,14.10
2023-04-06T20:42:32.064Z,14.48
2023-04-06T20:44:58.736Z,17.05
2023-04-06T20:47:25.623Z,14.93
2023-04-06T20:49:52.547Z,13.15
2023-04-06T20:52:19.228Z,13.10
2023-04-06T20:54:46.022Z,12.73
2023-04-06T20:57:12.762Z,12.18
2023-04-06T20:59:39.361Z,13.55
2023-04-06T21:02:06.192Z,12.90
2023-04-06T21:04:34.954Z,15.68
2023-04-06T21:07:07.248Z,16.17
2023-04-06T21:09:38.733Z,15.25
2023-04-06T21:12:06.701Z,15.48
2023-04-06T21:14:33.944Z,15.18
2023-04-06T21:17:00.808Z,15.15
2023-04-06T21:19:27.853Z,13.73
2023-04-06T21:21:55.075Z,20.35
2023-04-06T21:24:21.837Z,36.75
2023-04-06T21:26:48.606Z,21.13
2023-04-06T21:29:15.367Z,16.60
2023-04-06T21:31:42.588Z,15.95
2023-04-06T21:34:11.074Z,16.15
2023-04-06T21:36:38.725Z,16.52
2023-04-06T21:39:06.095Z,16.45
2023-04-06T21:41:33.925Z,16.73
2023-04-06T21:44:00.959Z,16.92
2023-04-06T21:46:27.893Z,16.08
2023-04-06T21:48:54.602Z,17.70
2023-04-06T21:51:23.056Z,16.00
2023-04-06T21:53:49.817Z,14.23
2023-04-06T21:56:22.127Z,16.15
2023-04-06T21:58:49.379Z,15.25
2023-04-06T22:01:17.447Z,16.10
2023-04-06T22:03:45.440Z,16.73
2023-04-06T22:06:12.673Z,16.65
2023-04-06T22:08:39.421Z,15.48
2023-04-06T22:11:11.312Z,16.90
2023-04-06T22:13:39.299Z,16.05
2023-04-06T22:16:07.102Z,14.80
2023-04-06T22:18:35.542Z,17.23
2023-04-06T22:21:06.219Z,16.58
2023-04-06T22:23:33.295Z,15.35
2023-04-06T22:26:00.156Z,15.73
2023-04-06T22:28:27.227Z,15.38
2023-04-06T22:30:53.954Z,16.25
2023-04-06T22:33:20.684Z,15.88
2023-04-06T22:35:47.296Z,14.82
2023-04-06T22:38:14.052Z,14.90
2023-04-06T22:40:40.652Z,15.93
2023-04-06T22:43:07.423Z,15.95
2023-04-06T22:45:34.096Z,15.77
2023-04-06T22:48:01.092Z,14.40
2023-04-06T22:50:27.806Z,14.10
2023-04-06T22:52:54.579Z,15.32
2023-04-06T22:55:21.576Z,15.30
2023-04-06T22:57:48.287Z,15.32
2023-04-06T23:00:15.308Z,15.52
2023-04-06T23:02:42.103Z,15.68
2023-04-06T23:05:09.283Z,14.30
2023-04-06T23:07:36.163Z,14.45
2023-04-06T23:10:03.430Z,15.05
2023-04-06T23:12:30.434Z,14.82
2023-04-06T23:14:57.187Z,16.20
2023-04-06T23:17:24.061Z,16.75
2023-04-06T23:19:51.450Z,14.18
2023-04-06T23:22:18.379Z,15.00
2023-04-06T23:24:44.961Z,16.83
2023-04-06T23:27:11.602Z,15.18
2023-04-06T23:29:38.354Z,16.58
2023-04-06T23:32:05.163Z,16.42
2023-04-06T23:34:32.056Z,18.80
2023-04-06T23:37:02.808Z,18.50
2023-04-06T23:39:30.491Z,17.52
2023-04-06T23:41:57.866Z,19.08
2023-04-06T23:44:25.003Z,17.55
2023-04-06T23:46:52.080Z,17.45
2023-04-06T23:49:18.889Z,17.88
2023-04-06T23:51:45.579Z,16.83
2023-04-06T23:54:12.425Z,14.13
2023-04-06T23:56:39.100Z,13.77
2023-04-06T23:59:05.895Z,14.10
